sensor_id;sensor_type;location;lat;lon;timestamp;temperature;humidity
18297;DHT22;18066;52.106;5.534;2023-09-19T00:02:21;15.40;99.90
18297;DHT22;18066;52.106;5.534;2023-09-19T00:04:48;15.40;99.90
18297;DHT22;18066;52.106;5.534;2023-09-19T00:07:15;15.30;99.90
18297;DHT22;18066;52.106;5.534;2023-09-19T00:09:42;15.30;99.90
18297;DHT22;18066;52.106;5.534;2023-09-19T00:12:09;15.30;99.90
18297;DHT22;18066;52.106;5.534;2023-09-19T00:14:38;15.30;99.90
18297;DHT22;18066;52.106;5.534;2023-09-19T00:17:07;15.30;99.90
18297;DHT22;18066;52.106;5.534;2023-09-19T00:19:35;15.30;99.90
18297;DHT22;18066;52.106;5.534;2023-09-19T00:22:03;15.30;99.90
18297;DHT22;18066;52.106;5.534;2023-09-19T00:24:30;15.30;99.90
18297;DHT22;18066;52.106;5.534;2023-09-19T00:26:57;15.30;99.90
18297;DHT22;18066;52.106;5.534;2023-09-19T00:29:25;15.30;99.90
18297;DHT22;18066;52.106;5.534;2023-09-19T00:31:54;15.30;99.90
18297;DHT22;18066;52.106;5.534;2023-09-19T00:34:23;15.20;99.90
18297;DHT22;18066;52.106;5.534;2023-09-19T00:36:51;15.30;99.90
18297;DHT22;18066;52.106;5.534;2023-09-19T00:39:19;15.20;99.90
18297;DHT22;18066;52.106;5.534;2023-09-19T00:41:47;15.20;99.90
18297;DHT22;18066;52.106;5.534;2023-09-19T00:44:14;15.30;99.90
18297;DHT22;18066;52.106;5.534;2023-09-19T00:46:43;15.20;99.90
18297;DHT22;18066;52.106;5.534;2023-09-19T00:49:13;15.20;99.90
18297;DHT22;18066;52.106;5.534;2023-09-19T00:51:42;15.30;99.90
18297;DHT22;18066;52.106;5.534;2023-09-19T00:54:13;15.30;99.90
18297;DHT22;18066;52.106;5.534;2023-09-19T00:56:44;15.30;99.90
18297;DHT22;18066;52.106;5.534;2023-09-19T00:59:11;15.20;99.90
18297;DHT22;18066;52.106;5.534;2023-09-19T01:01:39;15.30;99.90
18297;DHT22;18066;52.106;5.534;2023-09-19T01:04:06;15.30;99.90
18297;DHT22;18066;52.106;5.534;2023-09-19T01:06:33;15.30;99.90
18297;DHT22;18066;52.106;5.534;2023-09-19T01:09:02;15.40;99.90
18297;DHT22;18066;52.106;5.534;2023-09-19T01:11:35;15.40;99.90
18297;DHT22;18066;52.106;5.534;2023-09-19T01:14:14;15.40;99.90
18297;DHT22;18066;52.106;5.534;2023-09-19T01:16:50;15.40;99.90
18297;DHT22;18066;52.106;5.534;2023-09-19T01:19:49;15.50;99.90
18297;DHT22;18066;52.106;5.534;2023-09-19T01:22:24;15.50;99.90
18297;DHT22;18066;52.106;5.534;2023-09-19T01:25:13;15.40;99.90
18297;DHT22;18066;52.106;5.534;2023-09-19T01:28:01;15.40;99.90
18297;DHT22;18066;52.106;5.534;2023-09-19T01:30:37;15.40;99.90
18297;DHT22;18066;52.106;5.534;2023-09-19T01:33:06;15.50;99.90
18297;DHT22;18066;52.106;5.534;2023-09-19T01:35:33;15.50;99.90
18297;DHT22;18066;52.106;5.534;2023-09-19T01:38:04;15.50;99.90
18297;DHT22;18066;52.106;5.534;2023-09-19T01:40:34;15.50;99.90
18297;DHT22;18066;52.106;5.534;2023-09-19T01:43:09;15.50;99.90
18297;DHT22;18066;52.106;5.534;2023-09-19T01:45:44;15.50;99.90
18297;DHT22;18066;52.106;5.534;2023-09-19T01:48:20;15.40;99.90
18297;DHT22;18066;52.106;5.534;2023-09-19T01:50:56;15.40;99.90
18297;DHT22;18066;52.106;5.534;2023-09-19T01:53:28;15.40;99.90
18297;DHT22;18066;52.106;5.534;2023-09-19T01:55:57;15.40;99.90
18297;DHT22;18066;52.106;5.534;2023-09-19T01:58:29;15.30;99.90
18297;DHT22;18066;52.106;5.534;2023-09-19T02:01:01;15.30;99.90
18297;DHT22;18066;52.106;5.534;2023-09-19T02:03:31;15.30;99.90
18297;DHT22;18066;52.106;5.534;2023-09-19T02:05:59;15.30;99.90
18297;DHT22;18066;52.106;5.534;2023-09-19T02:08:26;15.20;99.90
18297;DHT22;18066;52.106;5.534;2023-09-19T02:10:53;15.10;99.90
18297;DHT22;18066;52.106;5.534;2023-09-19T02:13:21;15.10;99.90
18297;DHT22;18066;52.106;5.534;2023-09-19T02:15:49;15.10;99.90
18297;DHT22;18066;52.106;5.534;2023-09-19T02:18:17;15.10;99.90
18297;DHT22;18066;52.106;5.534;2023-09-19T02:20:44;15.00;99.90
18297;DHT22;18066;52.106;5.534;2023-09-19T02:23:12;15.00;99.90
18297;DHT22;18066;52.106;5.534;2023-09-19T02:25:41;15.00;99.90
18297;DHT22;18066;52.106;5.534;2023-09-19T02:28:08;14.90;99.90
18297;DHT22;18066;52.106;5.534;2023-09-19T02:30:35;14.90;99.90
18297;DHT22;18066;52.106;5.534;2023-09-19T02:33:03;14.90;99.90
18297;DHT22;18066;52.106;5.534;2023-09-19T02:35:31;14.80;99.90
18297;DHT22;18066;52.106;5.534;2023-09-19T02:38:00;14.70;99.90
18297;DHT22;18066;52.106;5.534;2023-09-19T02:40:27;14.70;99.90
18297;DHT22;18066;52.106;5.534;2023-09-19T02:42:55;14.70;99.90
18297;DHT22;18066;52.106;5.534;2023-09-19T02:45:24;14.70;99.90
18297;DHT22;18066;52.106;5.534;2023-09-19T02:47:51;14.60;99.90
18297;DHT22;18066;52.106;5.534;2023-09-19T02:50:18;14.70;99.90
18297;DHT22;18066;52.106;5.534;2023-09-19T02:52:47;14.60;99.90
18297;DHT22;18066;52.106;5.534;2023-09-19T02:55:15;14.60;99.90
18297;DHT22;18066;52.106;5.534;2023-09-19T02:57:48;14.50;99.90
18297;DHT22;18066;52.106;5.534;2023-09-19T03:00:16;14.40;99.90
18297;DHT22;18066;52.106;5.534;2023-09-19T03:02:46;14.50;99.90
18297;DHT22;18066;52.106;5.534;2023-09-19T03:05:13;14.40;99.90
18297;DHT22;18066;52.106;5.534;2023-09-19T03:07:40;14.40;99.90
18297;DHT22;18066;52.106;5.534;2023-09-19T03:10:10;14.30;99.90
18297;DHT22;18066;52.106;5.534;2023-09-19T03:12:37;14.40;99.90
18297;DHT22;18066;52.106;5.534;2023-09-19T03:15:06;14.40;99.90
18297;DHT22;18066;52.106;5.534;2023-09-19T03:17:34;14.30;99.90
18297;DHT22;18066;52.106;5.534;2023-09-19T03:20:01;14.30;99.90
18297;DHT22;18066;52.106;5.534;2023-09-19T03:22:29;14.30;99.90
18297;DHT22;18066;52.106;5.534;2023-09-19T03:24:56;14.20;99.90
18297;DHT22;18066;52.106;5.534;2023-09-19T03:27:24;14.20;99.90
18297;DHT22;18066;52.106;5.534;2023-09-19T03:29:52;14.10;99.90
18297;DHT22;18066;52.106;5.534;2023-09-19T03:32:19;14.20;99.90
18297;DHT22;18066;52.106;5.534;2023-09-19T03:34:46;14.10;99.90
18297;DHT22;18066;52.106;5.534;2023-09-19T03:37:14;14.10;99.90
18297;DHT22;18066;52.106;5.534;2023-09-19T03:39:41;14.10;99.90
18297;DHT22;18066;52.106;5.534;2023-09-19T03:42:08;14.00;99.90
18297;DHT22;18066;52.106;5.534;2023-09-19T03:44:36;14.00;99.90
18297;DHT22;18066;52.106;5.534;2023-09-19T03:47:04;14.00;99.90
18297;DHT22;18066;52.106;5.534;2023-09-19T03:49:32;14.00;99.90
18297;DHT22;18066;52.106;5.534;2023-09-19T03:51:59;13.90;99.90
18297;DHT22;18066;52.106;5.534;2023-09-19T03:54:26;14.00;99.90
18297;DHT22;18066;52.106;5.534;2023-09-19T03:56:53;13.90;99.90
18297;DHT22;18066;52.106;5.534;2023-09-19T03:59:20;13.90;99.90
18297;DHT22;18066;52.106;5.534;2023-09-19T04:01:48;13.90;99.90
18297;DHT22;18066;52.106;5.534;2023-09-19T04:04:15;13.90;99.90
18297;DHT22;18066;52.106;5.534;2023-09-19T04:06:44;13.90;99.90
18297;DHT22;18066;52.106;5.534;2023-09-19T04:09:11;13.90;99.90
18297;DHT22;18066;52.106;5.534;2023-09-19T04:11:38;13.90;99.90
18297;DHT22;18066;52.106;5.534;2023-09-19T04:14:05;13.80;99.90
18297;DHT22;18066;52.106;5.534;2023-09-19T04:16:31;13.80;99.90
18297;DHT22;18066;52.106;5.534;2023-09-19T04:19:00;13.80;99.90
18297;DHT22;18066;52.106;5.534;2023-09-19T04:21:26;13.80;99.90
18297;DHT22;18066;52.106;5.534;2023-09-19T04:23:53;13.80;99.90
18297;DHT22;18066;52.106;5.534;2023-09-19T04:26:20;13.80;99.90
18297;DHT22;18066;52.106;5.534;2023-09-19T04:28:47;13.80;99.90
18297;DHT22;18066;52.106;5.534;2023-09-19T04:31:14;13.70;99.90
18297;DHT22;18066;52.106;5.534;2023-09-19T04:33:42;13.70;99.90
18297;DHT22;18066;52.106;5.534;2023-09-19T04:36:10;13.80;99.90
18297;DHT22;18066;52.106;5.534;2023-09-19T04:38:38;13.70;99.90
18297;DHT22;18066;52.106;5.534;2023-09-19T04:41:05;13.70;99.90
18297;DHT22;18066;52.106;5.534;2023-09-19T04:43:32;13.70;99.90
18297;DHT22;18066;52.106;5.534;2023-09-19T04:45:59;13.70;99.90
18297;DHT22;18066;52.106;5.534;2023-09-19T04:48:26;13.70;99.90
18297;DHT22;18066;52.106;5.534;2023-09-19T04:50:54;13.80;99.90
18297;DHT22;18066;52.106;5.534;2023-09-19T04:53:22;13.80;99.90
18297;DHT22;18066;52.106;5.534;2023-09-19T04:55:50;13.80;99.90
18297;DHT22;18066;52.106;5.534;2023-09-19T04:58:18;13.80;99.90
18297;DHT22;18066;52.106;5.534;2023-09-19T05:00:46;13.80;99.90
18297;DHT22;18066;52.106;5.534;2023-09-19T05:03:12;13.80;99.90
18297;DHT22;18066;52.106;5.534;2023-09-19T05:05:39;13.70;99.90
18297;DHT22;18066;52.106;5.534;2023-09-19T05:08:06;13.70;99.90
18297;DHT22;18066;52.106;5.534;2023-09-19T05:10:36;13.70;99.90
18297;DHT22;18066;52.106;5.534;2023-09-19T05:13:03;13.70;99.90
18297;DHT22;18066;52.106;5.534;2023-09-19T05:15:30;13.70;99.90
18297;DHT22;18066;52.106;5.534;2023-09-19T05:17:57;13.70;99.90
18297;DHT22;18066;52.106;5.534;2023-09-19T05:20:24;13.70;99.90
18297;DHT22;18066;52.106;5.534;2023-09-19T05:22:58;13.70;99.90
18297;DHT22;18066;52.106;5.534;2023-09-19T05:25:27;13.70;99.90
18297;DHT22;18066;52.106;5.534;2023-09-19T05:27:57;13.70;99.90
18297;DHT22;18066;52.106;5.534;2023-09-19T05:30:24;13.80;99.90
18297;DHT22;18066;52.106;5.534;2023-09-19T05:32:53;13.80;99.90
18297;DHT22;18066;52.106;5.534;2023-09-19T05:35:20;13.80;99.90
18297;DHT22;18066;52.106;5.534;2023-09-19T05:37:48;13.70;99.90
18297;DHT22;18066;52.106;5.534;2023-09-19T05:40:16;13.70;99.90
18297;DHT22;18066;52.106;5.534;2023-09-19T05:42:43;13.70;99.90
18297;DHT22;18066;52.106;5.534;2023-09-19T05:45:11;13.80;99.90
18297;DHT22;18066;52.106;5.534;2023-09-19T05:47:39;13.80;99.90
18297;DHT22;18066;52.106;5.534;2023-09-19T05:50:09;13.80;99.90
18297;DHT22;18066;52.106;5.534;2023-09-19T05:52:36;13.80;99.90
18297;DHT22;18066;52.106;5.534;2023-09-19T05:55:03;13.80;99.90
18297;DHT22;18066;52.106;5.534;2023-09-19T05:57:33;13.80;99.90
18297;DHT22;18066;52.106;5.534;2023-09-19T05:59:59;13.90;99.90
18297;DHT22;18066;52.106;5.534;2023-09-19T06:02:27;13.90;99.90
18297;DHT22;18066;52.106;5.534;2023-09-19T06:04:55;13.90;99.90
18297;DHT22;18066;52.106;5.534;2023-09-19T06:07:22;14.00;99.90
18297;DHT22;18066;52.106;5.534;2023-09-19T06:09:51;14.00;99.90
18297;DHT22;18066;52.106;5.534;2023-09-19T06:12:19;14.10;99.90
18297;DHT22;18066;52.106;5.534;2023-09-19T06:14:45;14.10;99.90
18297;DHT22;18066;52.106;5.534;2023-09-19T06:17:13;14.10;99.90
18297;DHT22;18066;52.106;5.534;2023-09-19T06:19:42;14.20;99.90
18297;DHT22;18066;52.106;5.534;2023-09-19T06:22:11;14.20;99.90
18297;DHT22;18066;52.106;5.534;2023-09-19T06:24:42;14.20;99.90
18297;DHT22;18066;52.106;5.534;2023-09-19T06:27:08;14.20;99.90
18297;DHT22;18066;52.106;5.534;2023-09-19T06:29:35;14.20;99.90
18297;DHT22;18066;52.106;5.534;2023-09-19T06:32:07;14.30;99.90
18297;DHT22;18066;52.106;5.534;2023-09-19T06:34:34;14.30;99.90
18297;DHT22;18066;52.106;5.534;2023-09-19T06:37:02;14.30;99.90
18297;DHT22;18066;52.106;5.534;2023-09-19T06:39:30;14.40;99.90
18297;DHT22;18066;52.106;5.534;2023-09-19T06:41:57;14.50;99.90
18297;DHT22;18066;52.106;5.534;2023-09-19T06:44:25;14.50;99.90
18297;DHT22;18066;52.106;5.534;2023-09-19T06:46:55;14.50;99.90
18297;DHT22;18066;52.106;5.534;2023-09-19T06:49:22;14.60;99.90
18297;DHT22;18066;52.106;5.534;2023-09-19T06:51:48;14.60;99.90
18297;DHT22;18066;52.106;5.534;2023-09-19T06:54:16;14.60;99.90
18297;DHT22;18066;52.106;5.534;2023-09-19T06:56:43;14.70;99.90
18297;DHT22;18066;52.106;5.534;2023-09-19T06:59:10;14.70;99.90
18297;DHT22;18066;52.106;5.534;2023-09-19T07:01:40;14.70;99.90
18297;DHT22;18066;52.106;5.534;2023-09-19T07:04:06;14.80;99.90
18297;DHT22;18066;52.106;5.534;2023-09-19T07:06:33;14.80;99.90
18297;DHT22;18066;52.106;5.534;2023-09-19T07:09:00;14.90;99.90
18297;DHT22;18066;52.106;5.534;2023-09-19T07:11:29;14.90;99.90
18297;DHT22;18066;52.106;5.534;2023-09-19T07:13:57;14.90;99.90
18297;DHT22;18066;52.106;5.534;2023-09-19T07:16:24;15.00;99.90
18297;DHT22;18066;52.106;5.534;2023-09-19T07:18:55;15.00;99.90
18297;DHT22;18066;52.106;5.534;2023-09-19T07:21:22;15.00;99.90
18297;DHT22;18066;52.106;5.534;2023-09-19T07:23:49;15.00;99.90
18297;DHT22;18066;52.106;5.534;2023-09-19T07:26:16;15.10;99.90
18297;DHT22;18066;52.106;5.534;2023-09-19T07:28:44;15.10;99.90
18297;DHT22;18066;52.106;5.534;2023-09-19T07:31:11;15.10;99.90
18297;DHT22;18066;52.106;5.534;2023-09-19T07:33:39;15.10;99.90
18297;DHT22;18066;52.106;5.534;2023-09-19T07:36:09;15.20;99.90
18297;DHT22;18066;52.106;5.534;2023-09-19T07:38:36;15.20;99.90
18297;DHT22;18066;52.106;5.534;2023-09-19T07:41:03;15.20;99.90
18297;DHT22;18066;52.106;5.534;2023-09-19T07:43:30;15.20;99.90
18297;DHT22;18066;52.106;5.534;2023-09-19T07:46:04;15.30;99.90
18297;DHT22;18066;52.106;5.534;2023-09-19T07:48:32;15.40;99.90
18297;DHT22;18066;52.106;5.534;2023-09-19T07:51:02;15.50;99.90
18297;DHT22;18066;52.106;5.534;2023-09-19T07:53:28;15.50;99.90
18297;DHT22;18066;52.106;5.534;2023-09-19T07:56:02;15.60;99.90
18297;DHT22;18066;52.106;5.534;2023-09-19T07:58:29;15.70;99.90
18297;DHT22;18066;52.106;5.534;2023-09-19T08:00:56;15.40;99.90
18297;DHT22;18066;52.106;5.534;2023-09-19T08:03:29;15.60;99.90
18297;DHT22;18066;52.106;5.534;2023-09-19T08:05:56;15.70;99.90
18297;DHT22;18066;52.106;5.534;2023-09-19T08:08:25;15.80;99.90
18297;DHT22;18066;52.106;5.534;2023-09-19T08:10:53;15.80;99.90
18297;DHT22;18066;52.106;5.534;2023-09-19T08:13:22;15.80;99.90
18297;DHT22;18066;52.106;5.534;2023-09-19T08:15:49;15.90;99.90
18297;DHT22;18066;52.106;5.534;2023-09-19T08:18:16;16.10;99.90
18297;DHT22;18066;52.106;5.534;2023-09-19T08:20:49;16.00;99.90
18297;DHT22;18066;52.106;5.534;2023-09-19T08:23:16;16.00;99.90
18297;DHT22;18066;52.106;5.534;2023-09-19T08:25:45;16.10;99.90
18297;DHT22;18066;52.106;5.534;2023-09-19T08:28:12;16.20;99.90
18297;DHT22;18066;52.106;5.534;2023-09-19T08:30:43;16.10;99.90
18297;DHT22;18066;52.106;5.534;2023-09-19T08:33:10;16.10;99.90
18297;DHT22;18066;52.106;5.534;2023-09-19T08:35:36;16.10;99.90
18297;DHT22;18066;52.106;5.534;2023-09-19T08:38:06;16.20;99.90
18297;DHT22;18066;52.106;5.534;2023-09-19T08:40:36;16.40;99.90
18297;DHT22;18066;52.106;5.534;2023-09-19T08:43:05;16.50;99.90
18297;DHT22;18066;52.106;5.534;2023-09-19T08:45:32;16.50;99.90
18297;DHT22;18066;52.106;5.534;2023-09-19T08:48:06;16.50;99.90
18297;DHT22;18066;52.106;5.534;2023-09-19T08:50:42;16.50;99.90
18297;DHT22;18066;52.106;5.534;2023-09-19T08:53:15;16.50;99.90
18297;DHT22;18066;52.106;5.534;2023-09-19T08:55:43;16.60;99.90
18297;DHT22;18066;52.106;5.534;2023-09-19T08:58:17;16.60;99.90
18297;DHT22;18066;52.106;5.534;2023-09-19T09:00:48;16.70;99.90
18297;DHT22;18066;52.106;5.534;2023-09-19T09:03:18;16.80;99.90
18297;DHT22;18066;52.106;5.534;2023-09-19T09:05:47;16.80;99.90
18297;DHT22;18066;52.106;5.534;2023-09-19T09:08:19;16.90;99.90
18297;DHT22;18066;52.106;5.534;2023-09-19T09:10:47;17.00;99.90
18297;DHT22;18066;52.106;5.534;2023-09-19T09:13:14;17.00;99.90
18297;DHT22;18066;52.106;5.534;2023-09-19T09:15:41;17.10;99.90
18297;DHT22;18066;52.106;5.534;2023-09-19T09:18:10;17.30;99.90
18297;DHT22;18066;52.106;5.534;2023-09-19T09:20:37;17.40;99.90
18297;DHT22;18066;52.106;5.534;2023-09-19T09:23:04;17.70;99.90
18297;DHT22;18066;52.106;5.534;2023-09-19T09:25:49;17.80;99.90
18297;DHT22;18066;52.106;5.534;2023-09-19T09:28:21;17.70;99.90
18297;DHT22;18066;52.106;5.534;2023-09-19T09:30:48;17.50;99.90
18297;DHT22;18066;52.106;5.534;2023-09-19T09:33:15;17.40;99.90
18297;DHT22;18066;52.106;5.534;2023-09-19T09:35:50;17.30;99.90
18297;DHT22;18066;52.106;5.534;2023-09-19T09:38:19;17.20;99.90
18297;DHT22;18066;52.106;5.534;2023-09-19T09:40:48;17.40;99.90
18297;DHT22;18066;52.106;5.534;2023-09-19T09:43:26;17.40;99.90
18297;DHT22;18066;52.106;5.534;2023-09-19T09:46:21;17.50;99.90
18297;DHT22;18066;52.106;5.534;2023-09-19T09:49:05;17.60;99.90
18297;DHT22;18066;52.106;5.534;2023-09-19T09:51:42;17.80;99.90
18297;DHT22;18066;52.106;5.534;2023-09-19T09:54:11;17.90;99.90
18297;DHT22;18066;52.106;5.534;2023-09-19T09:56:53;17.80;99.90
18297;DHT22;18066;52.106;5.534;2023-09-19T09:59:44;17.90;99.90
18297;DHT22;18066;52.106;5.534;2023-09-19T10:02:13;18.00;99.90
18297;DHT22;18066;52.106;5.534;2023-09-19T10:04:46;18.10;99.90
18297;DHT22;18066;52.106;5.534;2023-09-19T10:07:25;18.10;99.90
18297;DHT22;18066;52.106;5.534;2023-09-19T10:09:58;18.30;99.90
18297;DHT22;18066;52.106;5.534;2023-09-19T10:12:40;18.40;99.90
18297;DHT22;18066;52.106;5.534;2023-09-19T10:15:08;18.50;99.90
18297;DHT22;18066;52.106;5.534;2023-09-19T10:17:42;18.70;99.90
18297;DHT22;18066;52.106;5.534;2023-09-19T10:20:13;18.80;99.90
18297;DHT22;18066;52.106;5.534;2023-09-19T10:22:50;18.70;99.90
18297;DHT22;18066;52.106;5.534;2023-09-19T10:25:25;18.60;99.90
18297;DHT22;18066;52.106;5.534;2023-09-19T10:27:56;18.30;99.90
18297;DHT22;18066;52.106;5.534;2023-09-19T10:30:24;18.20;99.90
18297;DHT22;18066;52.106;5.534;2023-09-19T10:33:03;18.20;99.90
18297;DHT22;18066;52.106;5.534;2023-09-19T10:35:32;18.10;99.90
18297;DHT22;18066;52.106;5.534;2023-09-19T10:38:00;18.10;99.90
18297;DHT22;18066;52.106;5.534;2023-09-19T10:40:28;18.30;99.90
18297;DHT22;18066;52.106;5.534;2023-09-19T10:43:03;18.30;99.90
18297;DHT22;18066;52.106;5.534;2023-09-19T10:45:32;18.40;99.90
18297;DHT22;18066;52.106;5.534;2023-09-19T10:47:59;18.50;99.90
18297;DHT22;18066;52.106;5.534;2023-09-19T10:50:31;18.60;99.90
18297;DHT22;18066;52.106;5.534;2023-09-19T10:53:01;18.70;99.90
18297;DHT22;18066;52.106;5.534;2023-09-19T10:55:31;18.80;99.90
18297;DHT22;18066;52.106;5.534;2023-09-19T10:57:59;18.80;99.90
18297;DHT22;18066;52.106;5.534;2023-09-19T11:00:54;18.80;99.90
18297;DHT22;18066;52.106;5.534;2023-09-19T11:03:22;18.80;99.90
18297;DHT22;18066;52.106;5.534;2023-09-19T11:06:10;18.80;99.90
18297;DHT22;18066;52.106;5.534;2023-09-19T11:08:59;18.80;99.90
18297;DHT22;18066;52.106;5.534;2023-09-19T11:11:44;18.80;99.90
18297;DHT22;18066;52.106;5.534;2023-09-19T11:14:38;18.80;99.90
18297;DHT22;18066;52.106;5.534;2023-09-19T11:17:35;19.00;99.90
18297;DHT22;18066;52.106;5.534;2023-09-19T11:20:19;19.10;99.90
18297;DHT22;18066;52.106;5.534;2023-09-19T11:23:17;19.10;99.90
18297;DHT22;18066;52.106;5.534;2023-09-19T11:25:44;19.30;99.90
18297;DHT22;18066;52.106;5.534;2023-09-19T11:28:30;19.40;99.90
18297;DHT22;18066;52.106;5.534;2023-09-19T11:30:57;19.40;99.90
18297;DHT22;18066;52.106;5.534;2023-09-19T11:33:26;19.30;99.90
18297;DHT22;18066;52.106;5.534;2023-09-19T11:36:04;19.30;99.90
18297;DHT22;18066;52.106;5.534;2023-09-19T11:38:59;19.20;99.90
18297;DHT22;18066;52.106;5.534;2023-09-19T11:41:37;19.30;99.90
18297;DHT22;18066;52.106;5.534;2023-09-19T11:44:33;19.30;99.90
18297;DHT22;18066;52.106;5.534;2023-09-19T11:47:02;19.40;99.90
18297;DHT22;18066;52.106;5.534;2023-09-19T11:49:32;19.40;99.90
18297;DHT22;18066;52.106;5.534;2023-09-19T11:52:01;19.30;99.90
18297;DHT22;18066;52.106;5.534;2023-09-19T11:54:34;19.10;99.90
18297;DHT22;18066;52.106;5.534;2023-09-19T11:57:06;19.10;99.90
18297;DHT22;18066;52.106;5.534;2023-09-19T11:59:38;19.20;99.90
18297;DHT22;18066;52.106;5.534;2023-09-19T12:02:06;19.30;99.90
18297;DHT22;18066;52.106;5.534;2023-09-19T12:04:36;19.40;99.90
18297;DHT22;18066;52.106;5.534;2023-09-19T12:07:05;19.50;99.90
18297;DHT22;18066;52.106;5.534;2023-09-19T12:09:39;19.50;99.90
18297;DHT22;18066;52.106;5.534;2023-09-19T12:12:09;19.50;99.90
18297;DHT22;18066;52.106;5.534;2023-09-19T12:14:38;19.50;99.90
18297;DHT22;18066;52.106;5.534;2023-09-19T12:17:07;19.40;99.90
18297;DHT22;18066;52.106;5.534;2023-09-19T12:19:36;19.40;99.90
18297;DHT22;18066;52.106;5.534;2023-09-19T12:22:03;19.20;99.90
18297;DHT22;18066;52.106;5.534;2023-09-19T12:24:31;19.20;99.90
18297;DHT22;18066;52.106;5.534;2023-09-19T12:27:03;19.20;99.90
18297;DHT22;18066;52.106;5.534;2023-09-19T12:29:42;19.30;99.90
18297;DHT22;18066;52.106;5.534;2023-09-19T12:32:09;19.40;99.90
18297;DHT22;18066;52.106;5.534;2023-09-19T12:34:38;19.40;99.90
18297;DHT22;18066;52.106;5.534;2023-09-19T12:37:08;19.30;99.90
18297;DHT22;18066;52.106;5.534;2023-09-19T12:39:42;19.30;99.90
18297;DHT22;18066;52.106;5.534;2023-09-19T12:42:12;19.30;99.90
18297;DHT22;18066;52.106;5.534;2023-09-19T12:44:41;19.30;99.90
18297;DHT22;18066;52.106;5.534;2023-09-19T12:47:13;19.50;99.90
18297;DHT22;18066;52.106;5.534;2023-09-19T12:50:12;19.50;99.90
18297;DHT22;18066;52.106;5.534;2023-09-19T12:52:45;19.40;99.90
18297;DHT22;18066;52.106;5.534;2023-09-19T12:55:23;19.30;99.90
18297;DHT22;18066;52.106;5.534;2023-09-19T12:58:11;19.10;99.90
18297;DHT22;18066;52.106;5.534;2023-09-19T13:00:41;19.10;99.90
18297;DHT22;18066;52.106;5.534;2023-09-19T13:03:12;19.00;99.90
18297;DHT22;18066;52.106;5.534;2023-09-19T13:05:49;19.00;99.90
18297;DHT22;18066;52.106;5.534;2023-09-19T13:08:18;19.00;99.90
18297;DHT22;18066;52.106;5.534;2023-09-19T13:11:07;19.00;99.90
18297;DHT22;18066;52.106;5.534;2023-09-19T13:13:36;19.10;99.90
18297;DHT22;18066;52.106;5.534;2023-09-19T13:16:03;19.20;99.90
18297;DHT22;18066;52.106;5.534;2023-09-19T13:18:44;19.20;99.90
18297;DHT22;18066;52.106;5.534;2023-09-19T13:21:14;19.20;99.90
18297;DHT22;18066;52.106;5.534;2023-09-19T13:23:51;19.20;99.90
18297;DHT22;18066;52.106;5.534;2023-09-19T13:26:18;19.20;99.90
18297;DHT22;18066;52.106;5.534;2023-09-19T13:28:45;19.20;99.90
18297;DHT22;18066;52.106;5.534;2023-09-19T13:31:13;19.20;99.90
18297;DHT22;18066;52.106;5.534;2023-09-19T13:33:43;19.10;99.90
18297;DHT22;18066;52.106;5.534;2023-09-19T13:36:10;19.00;99.90
18297;DHT22;18066;52.106;5.534;2023-09-19T13:38:40;19.00;99.90
18297;DHT22;18066;52.106;5.534;2023-09-19T13:41:09;18.70;99.90
18297;DHT22;18066;52.106;5.534;2023-09-19T13:43:36;19.10;99.90
18297;DHT22;18066;52.106;5.534;2023-09-19T13:46:04;19.20;99.90
18297;DHT22;18066;52.106;5.534;2023-09-19T13:48:33;19.20;99.90
18297;DHT22;18066;52.106;5.534;2023-09-19T13:51:02;19.20;99.90
18297;DHT22;18066;52.106;5.534;2023-09-19T13:53:29;19.30;99.90
18297;DHT22;18066;52.106;5.534;2023-09-19T13:55:57;19.40;99.90
18297;DHT22;18066;52.106;5.534;2023-09-19T13:58:24;19.60;99.90
18297;DHT22;18066;52.106;5.534;2023-09-19T14:00:52;19.60;99.90
18297;DHT22;18066;52.106;5.534;2023-09-19T14:03:21;19.60;99.90
18297;DHT22;18066;52.106;5.534;2023-09-19T14:05:49;19.60;99.90
18297;DHT22;18066;52.106;5.534;2023-09-19T14:08:17;19.60;99.90
18297;DHT22;18066;52.106;5.534;2023-09-19T14:10:44;19.60;99.90
18297;DHT22;18066;52.106;5.534;2023-09-19T14:13:12;19.50;99.90
18297;DHT22;18066;52.106;5.534;2023-09-19T14:15:40;19.50;99.90
18297;DHT22;18066;52.106;5.534;2023-09-19T14:18:08;19.50;99.90
18297;DHT22;18066;52.106;5.534;2023-09-19T14:20:37;19.50;99.90
18297;DHT22;18066;52.106;5.534;2023-09-19T14:23:04;19.50;99.90
18297;DHT22;18066;52.106;5.534;2023-09-19T14:25:34;19.40;99.90
18297;DHT22;18066;52.106;5.534;2023-09-19T14:28:01;19.40;99.90
18297;DHT22;18066;52.106;5.534;2023-09-19T14:30:29;19.40;99.90
18297;DHT22;18066;52.106;5.534;2023-09-19T14:32:55;19.40;99.90
18297;DHT22;18066;52.106;5.534;2023-09-19T14:35:23;19.40;99.90
18297;DHT22;18066;52.106;5.534;2023-09-19T14:37:50;19.40;99.90
18297;DHT22;18066;52.106;5.534;2023-09-19T14:40:17;19.40;99.90
18297;DHT22;18066;52.106;5.534;2023-09-19T14:42:44;19.40;99.90
18297;DHT22;18066;52.106;5.534;2023-09-19T14:45:11;19.40;99.90
18297;DHT22;18066;52.106;5.534;2023-09-19T14:47:43;19.50;99.90
18297;DHT22;18066;52.106;5.534;2023-09-19T14:50:10;19.40;99.90
18297;DHT22;18066;52.106;5.534;2023-09-19T14:52:38;19.30;99.90
18297;DHT22;18066;52.106;5.534;2023-09-19T14:55:06;19.30;99.90
18297;DHT22;18066;52.106;5.534;2023-09-19T14:57:34;19.30;99.90
18297;DHT22;18066;52.106;5.534;2023-09-19T15:00:06;19.20;99.90
18297;DHT22;18066;52.106;5.534;2023-09-19T15:02:38;19.20;99.90
18297;DHT22;18066;52.106;5.534;2023-09-19T15:05:08;19.20;99.90
18297;DHT22;18066;52.106;5.534;2023-09-19T15:07:36;19.10;99.90
18297;DHT22;18066;52.106;5.534;2023-09-19T15:10:04;19.10;99.90
18297;DHT22;18066;52.106;5.534;2023-09-19T15:12:35;19.10;99.90
18297;DHT22;18066;52.106;5.534;2023-09-19T15:15:03;19.00;99.90
18297;DHT22;18066;52.106;5.534;2023-09-19T15:17:32;18.90;99.90
18297;DHT22;18066;52.106;5.534;2023-09-19T15:19:59;18.80;99.90
18297;DHT22;18066;52.106;5.534;2023-09-19T15:22:29;18.80;99.90
18297;DHT22;18066;52.106;5.534;2023-09-19T15:24:56;18.80;99.90
18297;DHT22;18066;52.106;5.534;2023-09-19T15:27:23;18.80;99.90
18297;DHT22;18066;52.106;5.534;2023-09-19T15:29:49;18.80;99.90
18297;DHT22;18066;52.106;5.534;2023-09-19T15:32:16;18.90;99.90
18297;DHT22;18066;52.106;5.534;2023-09-19T15:34:43;18.90;99.90
18297;DHT22;18066;52.106;5.534;2023-09-19T15:37:09;19.00;99.90
18297;DHT22;18066;52.106;5.534;2023-09-19T15:39:38;18.90;99.90
18297;DHT22;18066;52.106;5.534;2023-09-19T15:42:05;18.90;99.90
18297;DHT22;18066;52.106;5.534;2023-09-19T15:44:32;18.80;99.90
18297;DHT22;18066;52.106;5.534;2023-09-19T15:46:59;18.70;99.90
18297;DHT22;18066;52.106;5.534;2023-09-19T15:49:26;18.70;99.90